Time;durP1;ratioP1;P1;durP2;ratioP2;P2;SDS_P1;SDS_P2;PMS_P1;PMS_P2;Temp;Humidity;BMP_temperature;BMP_pressure;BME280_temperature;BME280_humidity;BME280_pressure;Samples;Min_cycle;Max_cycle;Signal;HPM_P1;HPM_P2
2022/09/11 00:01:06;;;;;;;3.25;2.33;;;;;;;15.74;100.00;98646.53;1724866;82;21975;-72
2022/09/11 00:03:34;;;;;;;2.17;1.95;;;;;;;15.74;100.00;98646.05;1724832;83;22059;-72
2022/09/11 00:06:09;;;;;;;2.67;1.82;;;;;;;15.73;100.00;98647.00;1724769;82;21055;-72
2022/09/11 00:08:38;;;;;;;3.87;1.72;;;;;;;15.72;100.00;98645.33;1724925;82;21476;-72
2022/09/11 00:11:10;;;;;;;2.77;2.10;;;;;;;15.72;100.00;98647.12;1724873;83;20964;-72
2022/09/11 00:13:37;;;;;;;3.10;2.05;;;;;;;15.72;100.00;98644.50;1724982;83;21514;-72
2022/09/11 00:16:06;;;;;;;1.92;1.72;;;;;;;15.73;100.00;98650.09;1724817;83;21323;-73
2022/09/11 00:18:36;;;;;;;1.65;1.50;;;;;;;15.74;100.00;98649.15;1724783;83;20964;-72
2022/09/11 00:21:03;;;;;;;1.82;1.70;;;;;;;15.74;100.00;98639.50;1724843;83;20986;-72
2022/09/11 00:23:29;;;;;;;3.37;1.80;;;;;;;15.76;100.00;98646.78;1724806;82;21055;-72
2022/09/11 00:26:01;;;;;;;2.20;1.65;;;;;;;15.77;100.00;98649.76;1724986;83;20952;-73
2022/09/11 00:28:28;;;;;;;2.30;1.65;;;;;;;15.78;100.00;98639.63;1724824;83;21328;-72
2022/09/11 00:31:07;;;;;;;1.85;1.20;;;;;;;15.79;100.00;98646.52;1724775;83;20975;-72
2022/09/11 00:33:34;;;;;;;1.60;1.50;;;;;;;15.81;100.00;98651.17;1723869;83;20959;-72
2022/09/11 00:36:05;;;;;;;2.52;1.60;;;;;;;15.83;100.00;98655.83;1729508;82;21007;-72
2022/09/11 00:38:34;;;;;;;2.35;1.50;;;;;;;15.84;100.00;98652.73;1729616;83;20955;-72
2022/09/11 00:41:02;;;;;;;5.25;1.55;;;;;;;15.84;100.00;98655.35;1729504;82;21088;-72
2022/09/11 00:43:54;;;;;;;1.92;1.40;;;;;;;15.83;100.00;98664.17;1729409;83;20995;-72
2022/09/11 00:46:23;;;;;;;1.65;1.50;;;;;;;15.82;100.00;98654.63;1729470;82;20976;-72
2022/09/11 00:48:49;;;;;;;3.15;1.70;;;;;;;15.82;100.00;98652.84;1729466;82;20994;-72
2022/09/11 00:51:20;;;;;;;2.00;1.55;;;;;;;15.84;100.00;98656.66;1729911;83;20959;-73
2022/09/11 00:53:48;;;;;;;1.45;1.35;;;;;;;15.84;100.00;98660.13;1729661;83;21137;-73
2022/09/11 00:56:14;;;;;;;2.45;2.05;;;;;;;15.85;100.00;98668.35;1729948;82;20948;-73
2022/09/11 00:58:42;;;;;;;2.20;1.60;;;;;;;15.86;100.00;98667.87;1729538;83;21039;-73
2022/09/11 01:01:09;;;;;;;1.70;1.50;;;;;;;15.86;100.00;98662.63;1730098;83;20963;-71
2022/09/11 01:03:36;;;;;;;1.98;1.35;;;;;;;15.87;100.00;98666.92;1729482;82;21018;-72
2022/09/11 01:06:03;;;;;;;3.45;1.40;;;;;;;15.89;100.00;98673.37;1729520;83;21542;-72
2022/09/11 01:08:30;;;;;;;1.42;1.32;;;;;;;15.90;100.00;98673.73;1729384;82;21569;-73
2022/09/11 01:11:08;;;;;;;2.17;1.37;;;;;;;15.91;100.00;98665.75;1729426;82;21574;-73
2022/09/11 01:14:10;;;;;;;1.45;1.35;;;;;;;15.94;100.00;98680.42;1729445;83;20967;-73
2022/09/11 01:16:48;;;;;;;1.25;1.15;;;;;;;15.96;100.00;98681.98;1729530;83;21042;-73
2022/09/11 01:19:26;;;;;;;1.90;1.30;;;;;;;15.98;100.00;98684.01;1729478;83;21092;-73
2022/09/11 01:22:07;;;;;;;1.45;1.35;;;;;;;16.00;100.00;98686.48;1695787;82;20987;-73
2022/09/11 01:25:28;;;;;;;1.90;1.60;;;;;;;16.02;100.00;98695.08;1729496;83;20984;-73
2022/09/11 01:27:59;;;;;;;1.85;1.40;;;;;;;16.04;100.00;98691.39;1669990;85;21026;-72
2022/09/11 01:30:41;;;;;;;1.50;1.40;;;;;;;16.06;100.00;98692.11;1670214;86;20986;-72
2022/09/11 01:33:28;;;;;;;1.50;1.40;;;;;;;16.08;100.00;98694.14;1708149;83;21122;-72
2022/09/11 01:36:09;;;;;;;2.58;2.37;;;;;;;16.10;100.00;98699.28;1729361;82;20948;-72
2022/09/11 01:38:53;;;;;;;5.17;4.78;;;;;;;16.07;100.00;98709.52;1729568;82;20972;-72
2022/09/11 01:41:40;;;;;;;5.67;5.22;;;;;;;16.00;100.00;98704.84;1708831;83;21071;-72
2022/09/11 01:44:21;;;;;;;5.72;5.22;;;;;;;15.86;100.00;98712.45;1729662;82;21046;-72
2022/09/11 01:46:50;;;;;;;6.42;5.83;;;;;;;15.71;100.00;98710.98;1729447;83;21156;-72
2022/09/11 01:49:34;;;;;;;6.40;5.87;;;;;;;15.56;100.00;98723.45;1729378;83;21022;-72
2022/09/11 01:52:04;;;;;;;7.65;6.90;;;;;;;15.42;100.00;98724.41;1729469;82;21062;-72
2022/09/11 01:54:35;;;;;;;6.12;5.62;;;;;;;15.30;100.00;98725.78;1726462;83;20996;-73
2022/09/11 01:57:17;;;;;;;4.62;4.22;;;;;;;15.20;100.00;98728.21;1729323;82;21432;-73
2022/09/11 01:59:50;;;;;;;5.05;4.55;;;;;;;15.12;100.00;98727.47;1729965;82;21986;-73
2022/09/11 02:02:23;;;;;;;5.80;5.30;;;;;;;15.03;100.00;98732.52;1729801;82;21003;-73
2022/09/11 02:04:58;;;;;;;4.28;3.87;;;;;;;14.91;100.00;98726.38;1729807;83;21030;-72
2022/09/11 02:07:31;;;;;;;4.15;3.75;;;;;;;14.83;100.00;98733.45;1727127;83;20959;-73
2022/09/11 02:10:01;;;;;;;;;;;;;;;14.75;100.00;98728.41;1729491;83;20999;-73
2022/09/11 02:12:34;;;;;;;4.65;4.25;;;;;;;14.67;100.00;98731.56;1729688;83;21577;-73
2022/09/11 02:15:01;;;;;;;4.78;4.37;;;;;;;14.60;100.00;98734.70;1729835;83;21483;-73
2022/09/11 02:17:51;;;;;;;4.80;4.30;;;;;;;14.55;100.00;98735.51;1729719;83;21023;-73
2022/09/11 02:20:19;;;;;;;4.28;3.75;;;;;;;14.49;100.00;98734.14;1729916;82;21427;-71
2022/09/11 02:22:47;;;;;;;5.45;4.50;;;;;;;14.44;100.00;98740.16;1729715;83;21420;-71
2022/09/11 02:25:14;;;;;;;5.25;4.70;;;;;;;14.40;100.00;98740.83;1729739;82;21460;-71
2022/09/11 02:27:43;;;;;;;3.83;3.52;;;;;;;14.34;100.00;98736.02;1729338;83;21451;-72
2022/09/11 02:30:11;;;;;;;3.77;3.17;;;;;;;14.34;100.00;98736.02;1729674;83;20987;-71
2022/09/11 02:32:39;;;;;;;4.80;3.30;;;;;;;14.29;100.00;98734.17;1708961;83;21106;-71
2022/09/11 02:35:07;;;;;;;3.90;3.00;;;;;;;14.27;100.00;98739.98;1730016;82;21082;-72
2022/09/11 02:37:52;;;;;;;3.35;3.10;;;;;;;14.21;100.00;98740.38;1729950;83;21774;-72
2022/09/11 02:40:46;;;;;;;2.98;2.55;;;;;;;14.21;100.00;98740.38;1729905;83;20979;-72
2022/09/11 02:43:33;;;;;;;2.45;2.25;;;;;;;14.10;100.00;98735.89;1730044;82;21023;-71
2022/09/11 02:46:17;;;;;;;3.33;2.83;;;;;;;14.10;100.00;98735.89;1680254;83;21054;-73
2022/09/11 02:48:50;;;;;;;3.77;3.47;;;;;;;14.09;100.00;98741.22;1730039;83;20999;-72
2022/09/11 02:52:06;;;;;;;3.77;2.70;;;;;;;14.04;100.00;98744.61;1730053;82;21416;-72
2022/09/11 02:54:45;;;;;;;3.02;2.70;;;;;;;14.03;100.00;98747.69;1726626;83;20987;-72
2022/09/11 02:57:33;;;;;;;3.17;2.98;;;;;;;14.00;100.00;98753.12;1725571;82;20940;-72
2022/09/11 03:00:02;;;;;;;4.17;3.87;;;;;;;13.94;100.00;98761.86;1728086;82;20979;-72
2022/09/11 03:02:30;;;;;;;3.22;2.92;;;;;;;13.94;100.00;98761.86;1729983;82;21535;-71
2022/09/11 03:04:57;;;;;;;3.12;2.92;;;;;;;13.92;100.00;98759.81;1729913;83;21455;-71
2022/09/11 03:07:25;;;;;;;4.58;3.62;;;;;;;13.91;100.00;98759.45;1729878;83;20948;-72
2022/09/11 03:09:52;;;;;;;4.87;4.47;;;;;;;13.84;100.00;98768.63;1729777;82;21479;-72
2022/09/11 03:12:21;;;;;;;5.78;4.72;;;;;;;13.84;100.00;98768.63;1729795;82;20998;-72
2022/09/11 03:14:51;;;;;;;4.37;4.05;;;;;;;13.79;100.00;98767.14;1729891;83;21519;-73
2022/09/11 03:17:18;;;;;;;3.80;3.50;;;;;;;13.77;100.00;98771.66;1729847;83;21147;-73
2022/09/11 03:19:46;;;;;;;5.53;5.12;;;;;;;13.73;100.00;98772.80;1729748;83;21447;-73
2022/09/11 03:22:13;;;;;;;6.50;6.10;;;;;;;13.69;100.00;98771.31;1729803;83;20968;-72
2022/09/11 03:24:42;;;;;;;7.25;6.75;;;;;;;13.69;100.00;98781.77;1729752;83;21526;-72
2022/09/11 03:27:09;;;;;;;6.33;5.83;;;;;;;13.66;100.00;98781.12;1729816;82;21062;-72
2022/09/11 03:29:37;;;;;;;5.62;5.22;;;;;;;13.66;100.00;98781.12;1729835;82;21086;-72
2022/09/11 03:32:04;;;;;;;6.47;6.08;;;;;;;13.62;100.00;98776.55;1729718;82;20951;-73
2022/09/11 03:34:32;;;;;;;8.03;7.42;;;;;;;13.59;100.00;98774.64;1728393;82;21027;-73
2022/09/11 03:36:59;;;;;;;8.25;7.65;;;;;;;13.51;100.00;98769.05;1724800;83;21007;-72
2022/09/11 03:39:25;;;;;;;7.40;6.75;;;;;;;13.51;100.00;98769.05;1724956;83;21077;-72
2022/09/11 03:41:53;;;;;;;6.90;6.25;;;;;;;13.47;100.00;98770.18;1725005;83;21504;-72
2022/09/11 03:44:20;;;;;;;7.17;6.67;;;;;;;13.41;100.00;98766.17;1724782;83;20996;-72
2022/09/11 03:46:47;;;;;;;7.97;7.37;;;;;;;13.36;100.00;98762.58;1724897;82;21037;-72
2022/09/11 03:49:14;;;;;;;8.85;8.15;;;;;;;13.35;100.00;98769.20;1724909;83;21420;-72
2022/09/11 03:51:41;;;;;;;6.37;5.87;;;;;;;13.33;100.00;98770.60;1704208;83;21085;-72
2022/09/11 03:54:08;;;;;;;5.42;4.92;;;;;;;13.30;100.00;98767.34;1724848;82;21424;-73
2022/09/11 03:56:36;;;;;;;6.90;6.40;;;;;;;13.27;100.00;98769.68;1724872;82;20964;-72
2022/09/11 03:59:02;;;;;;;6.08;5.65;;;;;;;13.25;100.00;98767.63;1724855;83;21424;-72
2022/09/11 04:01:31;;;;;;;5.40;5.00;;;;;;;13.20;100.00;98764.47;1724829;83;21495;-72
2022/09/11 04:03:58;;;;;;;4.70;4.30;;;;;;;13.15;100.00;98766.98;1725130;83;21022;-72
2022/09/11 04:06:26;;;;;;;5.72;5.30;;;;;;;13.12;100.00;98771.93;1721020;83;21123;-72
2022/09/11 04:08:54;;;;;;;5.97;5.58;;;;;;;13.08;100.00;98767.83;1724804;82;20976;-72
2022/09/11 04:11:21;;;;;;;5.03;4.72;;;;;;;13.04;100.00;98767.17;1724934;83;21007;-72
2022/09/11 04:13:50;;;;;;;3.90;3.60;;;;;;;13.01;100.00;98766.05;1724858;82;21047;-72
2022/09/11 04:16:18;;;;;;;3.58;3.27;;;;;;;12.97;100.00;98772.42;1724849;83;21090;-72
2022/09/11 04:18:46;;;;;;;3.47;3.20;;;;;;;12.96;100.00;98773.83;1724844;83;21157;-72
2022/09/11 04:21:17;;;;;;;3.92;3.62;;;;;;;12.92;100.00;98770.56;1724833;83;20963;-72
2022/09/11 04:23:46;;;;;;;3.60;3.40;;;;;;;12.91;100.00;98776.72;1724992;83;20959;-72
2022/09/11 04:26:19;;;;;;;2.87;2.67;;;;;;;12.88;100.00;98772.98;1703275;83;21447;-72
2022/09/11 04:28:48;;;;;;;2.72;2.50;;;;;;;12.89;100.00;98778.58;1724849;82;21031;-72
2022/09/11 04:31:16;;;;;;;3.42;2.90;;;;;;;12.89;100.00;98775.97;1724851;82;21125;-72
2022/09/11 04:33:43;;;;;;;4.12;2.92;;;;;;;12.91;100.00;98778.48;1724765;83;20995;-72
2022/09/11 04:36:12;;;;;;;3.37;3.17;;;;;;;12.95;100.00;98783.43;1724718;82;21003;-72
2022/09/11 04:38:40;;;;;;;2.55;2.35;;;;;;;12.99;100.00;98773.64;1724839;83;21499;-72
2022/09/11 04:41:08;;;;;;;2.47;2.27;;;;;;;13.04;100.00;98778.92;1724855;83;21014;-72
2022/09/11 04:43:38;;;;;;;2.50;2.30;;;;;;;13.13;100.00;98776.22;1724781;83;21145;-72
2022/09/11 04:46:09;;;;;;;2.60;2.40;;;;;;;13.20;100.00;98770.16;1724838;83;20984;-74
2022/09/11 04:48:47;;;;;;;2.87;2.62;;;;;;;13.25;100.00;98775.47;1681404;83;21077;-72
2022/09/11 04:51:21;;;;;;;2.67;2.10;;;;;;;13.28;100.00;98774.44;1724972;83;20971;-72
2022/09/11 04:53:49;;;;;;;3.58;2.40;;;;;;;13.32;100.00;98778.53;1724195;83;21086;-72
2022/09/11 04:56:20;;;;;;;2.40;2.20;;;;;;;13.35;100.00;98782.27;1724891;83;21144;-72
2022/09/11 04:58:54;;;;;;;2.75;2.55;;;;;;;13.38;100.00;98772.46;1724825;83;21014;-72
2022/09/11 05:01:23;;;;;;;2.42;2.22;;;;;;;13.39;100.00;98765.44;1724834;83;21011;-72
2022/09/11 05:03:51;;;;;;;2.30;2.05;;;;;;;13.39;100.00;98768.05;1724857;82;20995;-72
2022/09/11 05:06:18;;;;;;;2.12;2.02;;;;;;;13.41;100.00;98767.02;1724803;83;21035;-72
2022/09/11 05:08:45;;;;;;;2.67;2.50;;;;;;;13.45;100.00;98777.64;1724758;82;21560;-72
2022/09/11 05:11:17;;;;;;;3.25;3.05;;;;;;;13.49;100.00;98775.68;1724717;82;21014;-72
2022/09/11 05:13:44;;;;;;;3.10;2.90;;;;;;;13.55;100.00;98779.22;1724830;82;21428;-72
2022/09/11 05:16:14;;;;;;;2.60;2.40;;;;;;;13.60;100.00;98773.20;1724766;83;20987;-71
2022/09/11 05:18:45;;;;;;;2.33;2.22;;;;;;;13.67;100.00;98764.50;1724861;82;21016;-71
2022/09/11 05:21:14;;;;;;;2.92;2.72;;;;;;;13.76;100.00;98763.91;1724644;83;21229;-71
2022/09/11 05:23:41;;;;;;;3.77;3.50;;;;;;;13.83;100.00;98773.02;1724789;83;21090;-71
2022/09/11 05:26:18;;;;;;;4.10;3.80;;;;;;;13.89;100.00;98777.84;1724836;82;21054;-72
2022/09/11 05:28:45;;;;;;;5.17;3.50;;;;;;;13.99;100.00;98774.97;1724737;83;21012;-71
2022/09/11 05:31:15;;;;;;;3.35;3.12;;;;;;;13.99;100.00;98774.97;1725076;83;20987;-71
2022/09/11 05:33:44;;;;;;;4.10;3.70;;;;;;;14.01;100.00;98763.95;1724602;83;21441;-71
2022/09/11 05:36:12;;;;;;;5.28;3.70;;;;;;;14.06;100.00;98768.41;1730904;82;20971;-71
2022/09/11 05:38:42;;;;;;;3.37;3.08;;;;;;;14.19;100.00;98773.64;1729398;83;21051;-71
2022/09/11 05:41:11;;;;;;;3.75;3.45;;;;;;;14.22;100.00;98774.75;1729434;83;21002;-71
2022/09/11 05:43:38;;;;;;;3.87;3.50;;;;;;;14.24;99.60;98769.42;1729417;83;21081;-71
2022/09/11 05:46:06;;;;;;;3.67;3.30;;;;;;;14.27;99.26;98770.52;1729463;83;21117;-71
2022/09/11 05:48:34;;;;;;;3.65;3.37;;;;;;;14.27;99.26;98770.52;1729740;83;21047;-72
2022/09/11 05:51:08;;;;;;;4.10;3.80;;;;;;;14.28;98.18;98768.28;1729389;82;20986;-72
2022/09/11 05:53:36;;;;;;;3.47;3.17;;;;;;;14.28;98.18;98768.28;1729438;82;20963;-72
2022/09/11 05:56:18;;;;;;;3.60;3.25;;;;;;;14.30;98.07;98765.09;1729507;83;20995;-72
2022/09/11 05:58:46;;;;;;;2.87;2.40;;;;;;;14.33;98.43;98765.73;1729383;82;21903;-72
2022/09/11 06:01:19;;;;;;;3.30;3.00;;;;;;;14.38;97.87;98751.87;1729390;83;46814;-72
2022/09/11 06:03:48;;;;;;;3.60;3.30;;;;;;;14.43;97.53;98760.72;1729686;82;21094;-72
2022/09/11 06:06:17;;;;;;;3.35;3.15;;;;;;;14.45;97.07;98764.07;1729405;83;21015;-72
2022/09/11 06:08:44;;;;;;;3.52;3.27;;;;;;;14.46;96.65;98767.89;1729433;83;21010;-72
2022/09/11 06:11:13;;;;;;;3.92;2.80;;;;;;;14.48;96.74;98766.02;1729335;82;21147;-73
2022/09/11 06:13:42;;;;;;;3.05;2.80;;;;;;;14.53;95.84;98770.09;1729410;83;20951;-73
2022/09/11 06:16:10;;;;;;;4.50;3.20;;;;;;;14.55;95.78;98772.98;1729492;83;21011;-73
2022/09/11 06:18:39;;;;;;;6.95;3.15;;;;;;;14.58;95.26;98775.86;1729464;83;21007;-73
2022/09/11 06:21:09;;;;;;;3.58;3.37;;;;;;;14.61;95.05;98777.77;1729642;82;21004;-73
2022/09/11 06:23:43;;;;;;;4.05;3.65;;;;;;;14.65;95.02;98774.48;1729140;82;21165;-73
2022/09/11 06:26:10;;;;;;;3.42;2.77;;;;;;;14.69;94.86;98774.64;1728442;82;20924;-73
2022/09/11 06:28:38;;;;;;;3.40;2.98;;;;;;;14.73;93.46;98782.65;1708929;83;21600;-73
2022/09/11 06:31:09;;;;;;;3.58;3.15;;;;;;;14.73;93.48;98778.72;1729497;82;21439;-73
2022/09/11 06:33:38;;;;;;;4.30;3.22;;;;;;;14.74;93.46;98773.39;1729552;82;21482;-73
2022/09/11 06:36:09;;;;;;;4.80;3.70;;;;;;;14.77;93.65;98776.27;1729259;83;21393;-73
2022/09/11 06:38:37;;;;;;;6.85;3.20;;;;;;;14.82;93.43;98780.69;1708586;83;20994;-73
2022/09/11 06:41:07;;;;;;;6.47;4.50;;;;;;;14.86;93.42;98776.08;1708688;83;20959;-73
2022/09/11 06:43:35;;;;;;;14.47;5.00;;;;;;;14.91;93.73;98778.75;1729501;83;21011;-73
2022/09/11 06:46:09;;;;;;;7.70;3.52;;;;;;;14.98;93.47;98786.55;1729568;83;20955;-73
2022/09/11 06:48:36;;;;;;;8.75;3.58;;;;;;;15.00;93.10;98786.41;1729551;82;21209;-73
2022/09/11 06:51:06;;;;;;;6.72;4.42;;;;;;;15.00;93.22;98796.89;1729512;82;20991;-73
2022/09/11 06:53:33;;;;;;;4.65;3.85;;;;;;;15.01;93.11;98795.95;1729596;83;20971;-72
2022/09/11 06:56:03;;;;;;;4.62;3.90;;;;;;;15.06;93.11;98796.47;1729301;82;20987;-72
2022/09/11 06:58:30;;;;;;;5.62;3.40;;;;;;;15.16;93.08;98793.11;1729585;83;20995;-73
2022/09/11 07:01:06;;;;;;;3.98;2.98;;;;;;;15.27;91.63;98801.97;1709039;83;21185;-73
2022/09/11 07:03:33;;;;;;;2.95;2.75;;;;;;;15.32;91.05;98792.01;1726804;83;21404;-73
2022/09/11 07:06:01;;;;;;;3.00;2.72;;;;;;;15.43;90.99;98802.07;1729503;82;21547;-73
2022/09/11 07:08:28;;;;;;;7.58;3.77;;;;;;;15.50;90.30;98800.70;1729494;82;21043;-73
2022/09/11 07:11:03;;;;;;;3.83;2.90;;;;;;;15.55;90.43;98800.84;1729505;83;20999;-73
2022/09/11 07:13:31;;;;;;;4.35;3.20;;;;;;;15.64;90.10;98801.50;1729527;82;21782;-73
2022/09/11 07:16:01;;;;;;;3.25;3.05;;;;;;;15.72;88.61;98803.10;1729438;82;21101;-73
2022/09/11 07:18:35;;;;;;;3.83;3.20;;;;;;;15.67;87.62;98807.36;1729500;83;21086;-73
2022/09/11 07:21:10;;;;;;;3.30;3.00;;;;;;;15.58;87.76;98805.43;1708766;83;21015;-73
2022/09/11 07:23:39;;;;;;;3.08;2.67;;;;;;;15.55;88.59;98809.55;1727073;83;21054;-71
2022/09/11 07:26:09;;;;;;;3.47;3.12;;;;;;;15.53;88.85;98806.20;1729490;82;21738;-72
2022/09/11 07:28:39;;;;;;;20.17;3.65;;;;;;;15.50;89.23;98806.41;1729410;82;21066;-72
2022/09/11 07:31:09;;;;;;;12.05;3.22;;;;;;;15.49;88.92;98803.42;1729595;83;21404;-72
2022/09/11 07:33:38;;;;;;;3.62;2.77;;;;;;;15.47;88.22;98798.77;1729484;83;20960;-72
2022/09/11 07:36:12;;;;;;;10.70;3.40;;;;;;;15.44;87.37;98796.36;1729581;83;21609;-72
2022/09/11 07:38:42;;;;;;;6.33;3.25;;;;;;;15.41;87.93;98793.48;1729689;82;21168;-72
2022/09/11 07:41:10;;;;;;;4.58;2.85;;;;;;;15.47;87.75;98793.05;1729566;82;21078;-73
2022/09/11 07:43:38;;;;;;;6.03;2.25;;;;;;;15.55;87.56;98788.58;1729752;82;21058;-71
2022/09/11 07:46:08;;;;;;;5.72;2.90;;;;;;;15.65;86.30;98799.24;1729845;83;20975;-71
2022/09/11 07:48:37;;;;;;;4.17;2.60;;;;;;;15.77;86.19;98795.75;1729884;82;20971;-72
2022/09/11 07:51:06;;;;;;;4.45;2.65;;;;;;;15.90;85.15;98795.67;1729755;82;20991;-72
2022/09/11 07:53:44;;;;;;;8.85;3.12;;;;;;;15.96;84.45;98793.44;1729678;83;20940;-72
2022/09/11 07:56:18;;;;;;;5.67;2.83;;;;;;;16.02;84.74;98793.44;1727398;82;20998;-71
2022/09/11 07:58:46;;;;;;;6.80;2.80;;;;;;;16.14;83.79;98799.09;1709045;83;20967;-71
2022/09/11 08:01:16;;;;;;;6.62;2.62;;;;;;;16.25;83.91;98795.18;1729740;83;21006;-72
2022/09/11 08:03:44;;;;;;;6.92;2.77;;;;;;;16.43;83.48;98802.14;1729737;83;21137;-72
2022/09/11 08:06:14;;;;;;;10.00;2.90;;;;;;;16.63;82.66;98796.23;1729674;82;21427;-72
2022/09/11 08:08:43;;;;;;;4.60;2.30;;;;;;;16.79;80.93;98788.84;1730067;82;20969;-72
2022/09/11 08:11:13;;;;;;;9.18;2.95;;;;;;;16.87;80.13;98785.62;1729726;83;21535;-72
2022/09/11 08:13:40;;;;;;;5.08;1.92;;;;;;;16.93;79.40;98785.63;1729709;83;20987;-72
2022/09/11 08:16:08;;;;;;;2.40;2.10;;;;;;;16.94;79.16;98784.68;1729802;82;21161;-72
2022/09/11 08:18:36;;;;;;;7.65;2.60;;;;;;;17.00;78.19;98786.33;1729638;82;21074;-72
2022/09/11 08:21:07;;;;;;;5.37;2.00;;;;;;;17.03;77.90;98786.09;1729945;82;20963;-72
2022/09/11 08:23:35;;;;;;;4.72;2.08;;;;;;;17.06;77.77;98787.17;1729762;82;21011;-72
2022/09/11 08:26:05;;;;;;;6.22;2.55;;;;;;;17.13;76.71;98791.00;1729830;83;21003;-72
2022/09/11 08:28:33;;;;;;;2.50;2.30;;;;;;;17.25;76.88;98774.72;1729698;82;21156;-72
2022/09/11 08:31:00;;;;;;;3.25;1.62;;;;;;;17.38;75.97;98770.66;1729740;82;21050;-72
2022/09/11 08:33:29;;;;;;;4.28;1.98;;;;;;;17.45;76.18;98767.86;1729747;83;21042;-72
2022/09/11 08:35:59;;;;;;;5.40;2.20;;;;;;;17.50;75.63;98775.74;1728536;83;21011;-72
2022/09/11 08:38:27;;;;;;;2.55;1.70;;;;;;;17.62;76.59;98768.64;1724791;82;20999;-72
2022/09/11 08:40:55;;;;;;;8.10;2.20;;;;;;;17.92;74.58;98769.77;1724782;83;21130;-72
2022/09/11 08:43:26;;;;;;;5.62;1.82;;;;;;;18.15;73.44;98776.11;1724492;83;21027;-72
2022/09/11 08:46:01;;;;;;;4.85;2.02;;;;;;;18.39;72.65;98761.34;1724869;82;20940;-72
2022/09/11 08:48:42;;;;;;;9.63;2.40;;;;;;;18.56;71.30;98767.84;1724844;83;21102;-71
2022/09/11 08:51:16;;;;;;;8.80;1.90;;;;;;;18.63;70.25;98764.21;1693699;83;21015;-72
2022/09/11 08:53:44;;;;;;;3.55;1.72;;;;;;;18.79;69.66;98766.70;1704202;83;21798;-72
2022/09/11 08:56:17;;;;;;;12.28;2.30;;;;;;;18.85;68.91;98761.40;1724607;82;20967;-72
2022/09/11 08:59:25;;;;;;;11.65;2.08;;;;;;;18.80;68.83;98754.37;1724862;83;20991;-72
2022/09/11 09:02:10;;;;;;;3.37;1.12;;;;;;;18.86;68.69;98763.91;1724820;82;21008;-72
2022/09/11 09:05:06;;;;;;;1.77;1.40;;;;;;;18.93;67.76;98762.90;1724630;83;21428;-72
2022/09/11 09:07:48;;;;;;;4.80;1.50;;;;;;;18.89;67.83;98759.69;1717861;83;21220;-72
2022/09/11 09:10:35;;;;;;;5.75;1.60;;;;;;;18.91;67.53;98758.24;1723734;83;21424;-72
2022/09/11 09:13:41;;;;;;;1.65;1.00;;;;;;;19.10;66.92;98758.30;1724464;83;21028;-71
2022/09/11 09:16:51;;;;;;;8.30;1.55;;;;;;;19.32;65.44;98754.61;1724796;82;21090;-71
2022/09/11 09:19:34;;;;;;;1.20;1.15;;;;;;;19.45;64.72;98756.50;1724869;83;21071;-71
2022/09/11 09:22:13;;;;;;;3.52;1.40;;;;;;;19.39;64.45;98753.08;1724971;83;21223;-71
2022/09/11 09:24:58;;;;;;;3.95;1.60;;;;;;;19.39;64.56;98757.03;1724677;83;21007;-71
2022/09/11 09:27:34;;;;;;;5.40;2.08;;;;;;;19.41;64.14;98754.26;1724805;83;20960;-72
2022/09/11 09:30:08;;;;;;;2.47;1.45;;;;;;;19.39;64.33;98750.92;1724736;82;20991;-71
2022/09/11 09:32:57;;;;;;;2.75;1.35;;;;;;;19.36;63.80;98756.02;1724469;83;20960;-71
2022/09/11 09:35:39;;;;;;;2.00;1.45;;;;;;;19.33;64.03;98745.73;1724740;82;21301;-71
2022/09/11 09:38:13;;;;;;;1.62;1.50;;;;;;;19.36;64.46;98744.15;1729506;82;20996;-72
2022/09/11 09:41:00;;;;;;;1.42;1.32;;;;;;;19.43;64.01;98741.78;1729465;82;21030;-71
2022/09/11 09:43:51;;;;;;;1.67;1.57;;;;;;;19.45;63.96;98739.36;1729398;83;21035;-71
2022/09/11 09:46:35;;;;;;;2.20;1.20;;;;;;;19.41;63.69;98739.76;1729364;82;21163;-71
2022/09/11 09:49:02;;;;;;;2.55;1.45;;;;;;;19.33;64.13;98735.67;1729546;82;21472;-72
2022/09/11 09:51:28;;;;;;;1.60;1.50;;;;;;;19.32;64.43;98740.59;1708641;83;21003;-72
2022/09/11 09:53:59;;;;;;;1.55;1.45;;;;;;;19.28;65.49;98738.23;1729450;83;20959;-72
2022/09/11 09:56:25;;;;;;;1.70;1.60;;;;;;;19.24;65.14;98746.05;1729520;83;21109;-71
2022/09/11 09:59:17;;;;;;;5.37;1.98;;;;;;;19.18;64.76;98737.36;1729546;82;21526;-71
2022/09/11 10:01:49;;;;;;;1.50;1.40;;;;;;;19.08;65.44;98746.22;1729530;82;21664;-72
2022/09/11 10:04:25;;;;;;;5.72;1.52;;;;;;;18.96;65.84;98742.04;1729533;82;20959;-72
2022/09/11 10:06:55;;;;;;;2.37;1.75;;;;;;;18.84;66.21;98738.17;1729421;82;21046;-72
2022/09/11 10:09:29;;;;;;;7.80;1.85;;;;;;;18.81;66.80;98742.87;1728453;82;21503;-71
2022/09/11 10:12:04;;;;;;;2.08;1.70;;;;;;;18.82;66.78;98735.31;1729608;82;21345;-71
2022/09/11 10:14:41;;;;;;;3.15;1.70;;;;;;;18.82;66.81;98736.63;1708583;83;21083;-72
2022/09/11 10:17:32;;;;;;;4.03;2.00;;;;;;;18.80;66.46;98736.77;1726556;83;21003;-72
2022/09/11 10:20:21;;;;;;;1.55;1.40;;;;;;;18.69;66.29;98733.40;1729696;82;21051;-72
2022/09/11 10:22:57;;;;;;;1.70;1.60;;;;;;;18.62;66.87;98731.77;1729822;82;21038;-72
2022/09/11 10:25:26;;;;;;;3.05;1.52;;;;;;;18.53;66.88;98729.43;1709182;82;21095;-71
2022/09/11 10:28:13;;;;;;;10.35;2.42;;;;;;;18.42;67.64;98737.39;1729664;82;21427;-72
2022/09/11 10:30:46;;;;;;;8.88;1.85;;;;;;;18.35;67.99;98739.38;1708978;83;20995;-71
2022/09/11 10:33:25;;;;;;;1.90;1.77;;;;;;;18.28;67.93;98739.05;1729761;82;20994;-71
2022/09/11 10:35:57;;;;;;;2.35;1.80;;;;;;;18.22;68.04;98739.08;1729439;82;21007;-71
2022/09/11 10:38:38;;;;;;;2.02;1.50;;;;;;;18.23;69.02;98745.18;1730045;82;21006;-71
2022/09/11 10:41:20;;;;;;;1.40;1.30;;;;;;;18.28;68.97;98750.91;1728769;83;21330;-71
2022/09/11 10:44:12;;;;;;;3.12;1.57;;;;;;;18.29;68.95;98753.89;1729916;83;20959;-71
2022/09/11 10:46:41;;;;;;;6.37;1.95;;;;;;;18.35;68.79;98752.55;1700652;82;20975;-72
2022/09/11 10:49:16;;;;;;;7.15;2.20;;;;;;;18.46;68.41;98749.34;1729863;82;21039;-72
2022/09/11 10:52:09;;;;;;;5.05;1.82;;;;;;;18.57;68.29;98747.12;1729886;82;20964;-72
2022/09/11 10:54:57;;;;;;;;;;;;;;;18.68;67.93;98747.53;1732397;82;21557;-72
2022/09/11 10:57:38;;;;;;;2.75;1.47;;;;;;;18.90;67.68;98735.49;1729881;83;20115;-72
2022/09/11 11:00:26;;;;;;;8.53;2.25;;;;;;;19.16;66.45;98735.85;1729839;83;20994;-72
2022/09/11 11:03:18;;;;;;;1.95;1.70;;;;;;;19.40;66.51;98735.45;1729766;82;21011;-72
2022/09/11 11:05:53;;;;;;;3.20;1.77;;;;;;;19.60;65.41;98726.13;1729852;83;20948;-72
2022/09/11 11:08:45;;;;;;;1.60;1.50;;;;;;;19.76;64.97;98725.60;1729812;82;22102;-72
2022/09/11 11:11:41;;;;;;;8.58;2.25;;;;;;;19.86;64.95;98728.22;1729727;82;21050;-71
2022/09/11 11:14:46;;;;;;;2.77;1.77;;;;;;;19.87;64.97;98725.92;1729754;82;21566;-72
2022/09/11 11:17:53;;;;;;;14.50;2.02;;;;;;;19.89;63.92;98731.42;1729793;82;20995;-71
2022/09/11 11:20:44;;;;;;;4.22;1.60;;;;;;;19.93;63.84;98726.21;1726732;83;21003;-70
2022/09/11 11:23:46;;;;;;;13.90;2.35;;;;;;;19.97;63.68;98728.58;1729904;83;21753;-71
2022/09/11 11:26:34;;;;;;;2.30;1.82;;;;;;;19.99;64.11;98727.43;1729258;82;20960;-71
2022/09/11 11:29:08;;;;;;;4.78;1.70;;;;;;;20.09;64.06;98719.03;1729695;83;21023;-71
2022/09/11 11:31:54;;;;;;;6.17;1.72;;;;;;;20.21;63.99;98719.20;1729596;82;20975;-71
2022/09/11 11:35:06;;;;;;;1.90;1.80;;;;;;;20.27;63.20;98716.48;1716387;83;21506;-72
2022/09/11 11:37:37;;;;;;;1.72;1.50;;;;;;;20.30;63.12;98713.56;1729904;83;21948;-72
2022/09/11 11:40:17;;;;;;;3.40;1.75;;;;;;;20.35;63.51;98716.61;1709126;83;20959;-72
2022/09/11 11:42:55;;;;;;;11.20;2.37;;;;;;;20.33;62.70;98715.09;1709208;82;21035;-72
2022/09/11 11:46:01;;;;;;;3.10;1.62;;;;;;;20.19;62.70;98711.91;1729944;82;20987;-72
2022/09/11 11:48:35;;;;;;;5.72;2.00;;;;;;;20.11;62.77;98710.48;1705817;83;21074;-72
2022/09/11 11:51:06;;;;;;;8.68;2.10;;;;;;;20.02;63.23;98707.36;1677384;85;21774;-72
2022/09/11 11:53:43;;;;;;;3.72;1.65;;;;;;;19.93;63.99;98708.22;1677181;85;21510;-72
2022/09/11 11:56:39;;;;;;;3.65;1.60;;;;;;;19.84;64.06;98705.92;1677312;85;21049;-71
2022/09/11 11:59:21;;;;;;;4.58;1.57;;;;;;;19.72;64.34;98703.59;1677243;85;21034;-72
2022/09/11 12:01:55;;;;;;;4.90;1.65;;;;;;;19.54;64.71;98687.63;1671197;85;21593;-71